Time;durP1;ratioP1;P1;durP2;ratioP2;P2;SDS_P1;SDS_P2;PMS_P1;PMS_P2;Temp;Humidity;BMP_temperature;BMP_pressure;BME280_temperature;BME280_humidity;BME280_pressure;Samples;Min_cycle;Max_cycle;Signal;HPM_P1;HPM_P2
2021/08/21 00:01:13;;;;;;;6.67;4.55;;;;;;;18.51;69.74;100795.33;1675446;83;21139;-60
2021/08/21 00:06:25;;;;;;;11.97;4.67;;;;;;;18.49;69.93;100791.84;1687873;83;21128;-61
2021/08/21 00:08:52;;;;;;;11.25;5.05;;;;;;;18.46;70.05;100793.42;1694668;82;21548;-61
2021/08/21 00:11:22;;;;;;;13.08;5.12;;;;;;;18.44;70.21;100800.77;1684111;83;22473;-61
2021/08/21 00:16:28;;;;;;;10.45;5.12;;;;;;;18.36;70.42;100798.59;1680500;83;21274;-61
2021/08/21 00:18:54;;;;;;;9.00;4.87;;;;;;;18.28;70.76;100796.86;1700134;83;21087;-61
2021/08/21 00:23:59;;;;;;;13.15;5.45;;;;;;;18.15;71.44;100794.09;1683843;83;21126;-60
2021/08/21 00:26:59;;;;;;;11.90;5.35;;;;;;;18.11;71.75;100783.07;1700559;82;21102;-60
2021/08/21 00:34:46;;;;;;;10.15;5.50;;;;;;;17.93;72.71;100785.98;1686304;82;21942;-61
2021/08/21 00:37:13;;;;;;;9.05;5.53;;;;;;;17.88;72.88;100784.07;1680856;83;21092;-60
2021/08/21 00:39:40;;;;;;;8.48;5.30;;;;;;;17.85;73.03;100784.27;1700095;82;21133;-60
2021/08/21 00:42:07;;;;;;;10.03;5.85;;;;;;;17.82;73.23;100781.77;1679733;82;21056;-60
2021/08/21 00:44:35;;;;;;;8.55;5.92;;;;;;;17.80;73.50;100781.00;1687207;82;21076;-60
2021/08/21 00:47:17;;;;;;;11.63;5.72;;;;;;;17.78;73.58;100781.09;1668199;83;21081;-60
2021/08/21 00:49:49;;;;;;;8.38;5.72;;;;;;;17.75;73.71;100784.86;1619962;85;21078;-60
2021/08/21 00:54:45;;;;;;;13.30;6.05;;;;;;;17.68;74.07;100773.14;1692557;82;21154;-61
2021/08/21 00:57:13;;;;;;;10.03;5.30;;;;;;;17.62;74.34;100781.22;1674118;82;21541;-60
2021/08/21 00:59:40;;;;;;;10.53;5.75;;;;;;;17.57;74.62;100776.55;1686876;83;21290;-60
2021/08/21 01:07:57;;;;;;;12.65;6.00;;;;;;;17.50;75.25;100778.81;1687568;83;21035;-60
2021/08/21 01:10:27;;;;;;;12.40;5.67;;;;;;;17.47;75.42;100782.57;1686214;82;21135;-60
2021/08/21 01:12:56;;;;;;;8.35;5.42;;;;;;;17.47;75.43;100781.22;1671473;83;21130;-59
2021/08/21 01:15:25;;;;;;;9.10;6.03;;;;;;;17.45;75.71;100785.87;1680185;83;21041;-62
2021/08/21 01:18:22;;;;;;;13.40;6.12;;;;;;;17.48;75.80;100786.17;1674176;84;21112;-62
2021/08/21 01:20:50;;;;;;;12.35;6.33;;;;;;;17.46;75.82;100784.90;1674612;83;21104;-59
2021/08/21 01:23:18;;;;;;;9.38;5.87;;;;;;;17.46;75.89;100778.59;1694108;83;21107;-60
2021/08/21 01:25:50;;;;;;;10.58;5.80;;;;;;;17.45;75.94;100780.45;1660093;83;22333;-60
2021/08/21 01:28:18;;;;;;;9.83;6.47;;;;;;;17.43;75.96;100782.39;1685988;83;21084;-59
2021/08/21 01:31:05;;;;;;;9.65;5.65;;;;;;;17.37;76.19;100778.72;1687778;82;21529;-60
2021/08/21 01:33:39;;;;;;;8.48;6.20;;;;;;;17.32;76.37;100781.72;1681337;83;21068;-61
2021/08/21 01:38:56;;;;;;;13.38;5.25;;;;;;;17.31;76.60;100789.45;1687051;82;21116;-59
2021/08/21 01:41:42;;;;;;;8.30;5.22;;;;;;;17.31;76.68;100789.45;1670701;83;21118;-61
2021/08/21 01:44:13;;;;;;;9.13;5.80;;;;;;;17.31;76.79;100785.86;1643018;85;21573;-59
2021/08/21 01:46:41;;;;;;;9.10;5.85;;;;;;;17.28;76.85;100783.34;1630824;85;21753;-60
2021/08/21 01:49:11;;;;;;;8.00;5.62;;;;;;;17.24;77.04;100795.35;1629112;86;21124;-61
2021/08/21 01:51:36;;;;;;;12.63;5.80;;;;;;;17.18;77.46;100801.55;1624275;85;21514;-60
2021/08/21 01:56:58;;;;;;;14.63;5.75;;;;;;;17.10;77.80;100807.91;1673237;83;21513;-59
2021/08/21 01:59:36;;;;;;;11.45;5.75;;;;;;;17.06;77.97;100802.80;1671657;83;21040;-60
2021/08/21 02:05:01;;;;;;;9.85;5.47;;;;;;;16.97;78.51;100801.48;1688822;83;21093;-60
2021/08/21 02:10:19;;;;;;;11.75;6.00;;;;;;;16.92;78.83;100804.46;1694184;83;21073;-58
2021/08/21 02:12:40;;;;;;;11.73;5.70;;;;;;;16.92;79.03;100800.91;1690181;82;21446;-59
2021/08/21 02:15:09;;;;;;;9.93;5.80;;;;;;;16.92;79.15;100809.03;1674125;82;21112;-60
2021/08/21 02:20:22;;;;;;;11.75;5.92;;;;;;;16.86;79.40;100810.27;1668058;83;21068;-60
2021/08/21 02:25:24;;;;;;;10.40;6.15;;;;;;;16.85;79.70;100808.52;1682291;83;21227;-59
2021/08/21 02:30:40;;;;;;;9.78;6.00;;;;;;;16.86;79.81;100819.23;1683634;83;21610;-60
2021/08/21 02:33:07;;;;;;;10.28;6.35;;;;;;;16.83;79.83;100819.92;1680756;82;21242;-60
2021/08/21 02:40:34;;;;;;;14.45;6.37;;;;;;;16.77;80.23;100815.75;1692248;83;21377;-60
2021/08/21 02:43:02;;;;;;;8.30;5.92;;;;;;;16.79;80.33;100821.94;1682595;83;21055;-61
2021/08/21 02:45:29;;;;;;;16.57;6.92;;;;;;;16.76;80.35;100819.42;1659496;83;21111;-61
2021/08/21 02:47:56;;;;;;;10.13;6.53;;;;;;;16.73;80.51;100823.67;1684596;83;21136;-61
2021/08/21 02:50:23;;;;;;;9.00;5.87;;;;;;;16.70;80.94;100823.86;1678590;83;21183;-61
2021/08/21 02:52:51;;;;;;;10.25;6.37;;;;;;;16.70;80.98;100821.15;1687765;83;21039;-61
2021/08/21 02:55:20;;;;;;;13.18;7.03;;;;;;;16.74;81.00;100829.47;1679582;83;21170;-60
2021/08/21 02:57:49;;;;;;;13.35;7.25;;;;;;;16.75;80.96;100825.30;1671801;84;21044;-60
2021/08/21 03:02:55;;;;;;;16.60;7.28;;;;;;;16.80;80.71;100830.45;1686341;83;21165;-61
2021/08/21 03:06:11;;;;;;;19.50;6.85;;;;;;;16.80;80.87;100830.92;1689166;83;21144;-61
2021/08/21 03:08:38;;;;;;;14.85;7.58;;;;;;;16.80;80.86;100834.51;1676102;83;21159;-61
2021/08/21 03:11:07;;;;;;;12.47;7.50;;;;;;;16.81;80.89;100829.98;1676794;83;21043;-61
2021/08/21 03:13:41;;;;;;;14.83;7.45;;;;;;;16.84;80.87;100831.15;1684065;83;21771;-60
2021/08/21 03:19:02;;;;;;;11.80;6.28;;;;;;;16.82;80.77;100833.94;1683111;83;21685;-60
2021/08/21 03:23:54;;;;;;;12.90;6.95;;;;;;;16.83;80.81;100830.26;1675975;83;21162;-60
2021/08/21 03:26:20;;;;;;;9.68;6.80;;;;;;;16.83;80.80;100830.26;1692811;82;22077;-60
2021/08/21 03:28:49;;;;;;;10.13;6.53;;;;;;;16.82;80.88;100824.95;1658914;84;21102;-61
2021/08/21 03:36:24;;;;;;;17.15;6.45;;;;;;;16.91;80.92;100829.80;1642557;85;21219;-60
2021/08/21 03:38:52;;;;;;;10.93;6.95;;;;;;;16.95;80.74;100835.41;1689026;83;21159;-60
2021/08/21 03:44:10;;;;;;;10.90;7.00;;;;;;;16.99;80.55;100837.50;1689887;82;21061;-59
2021/08/21 03:52:10;;;;;;;13.15;6.45;;;;;;;17.17;80.09;100850.39;1664636;83;21072;-60
2021/08/21 03:54:37;;;;;;;8.83;5.95;;;;;;;17.26;79.78;100852.55;1663576;83;21133;-61
2021/08/21 04:02:24;;;;;;;15.90;7.00;;;;;;;17.50;78.94;100844.33;1689279;83;21522;-60
2021/08/21 04:04:51;;;;;;;12.58;7.25;;;;;;;17.60;78.63;100838.73;1686581;83;21205;-59
2021/08/21 04:12:32;;;;;;;19.65;6.97;;;;;;;17.94;77.42;100847.40;1690163;82;21058;-59
2021/08/21 04:17:33;;;;;;;10.55;6.85;;;;;;;18.08;76.80;100838.89;1684840;83;21147;-58
2021/08/21 04:20:03;;;;;;;13.78;6.67;;;;;;;18.18;76.53;100837.30;1671708;83;21115;-59
2021/08/21 04:22:31;;;;;;;11.97;6.33;;;;;;;18.30;76.26;100840.58;1680349;83;21111;-59
2021/08/21 04:28:01;;;;;;;14.45;6.25;;;;;;;18.58;75.07;100847.37;1686971;82;21164;-59
2021/08/21 04:35:48;;;;;;;10.63;6.70;;;;;;;18.91;74.14;100850.10;1639921;84;21103;-58
2021/08/21 04:38:15;;;;;;;10.28;6.30;;;;;;;19.01;73.79;100846.30;1644291;84;21093;-58
2021/08/21 04:40:46;;;;;;;14.07;7.22;;;;;;;19.11;73.42;100843.30;1638537;85;21109;-60
2021/08/21 04:43:14;;;;;;;16.50;7.33;;;;;;;19.24;72.93;100841.10;1625414;85;21159;-58
2021/08/21 04:46:00;;;;;;;10.38;6.60;;;;;;;19.36;72.57;100852.48;1650031;84;21077;-58
2021/08/21 04:48:35;;;;;;;10.82;6.92;;;;;;;19.47;71.93;100852.58;1630500;86;21673;-58
2021/08/21 04:51:02;;;;;;;13.18;6.72;;;;;;;19.55;71.67;100840.27;1634428;86;21172;-59
2021/08/21 04:53:30;;;;;;;16.10;7.00;;;;;;;19.59;71.57;100849.47;1630336;86;21078;-59
2021/08/21 04:55:57;;;;;;;13.60;6.90;;;;;;;19.67;71.22;100859.80;1618269;86;21084;-59
2021/08/21 04:58:24;;;;;;;11.45;7.35;;;;;;;19.71;71.21;100853.15;1642225;85;21139;-60
2021/08/21 05:01:19;;;;;;;14.87;7.25;;;;;;;19.84;70.93;100856.36;1683710;83;21056;-59
2021/08/21 05:06:47;;;;;;;14.78;7.33;;;;;;;20.10;69.92;100859.90;1674208;83;21077;-58
2021/08/21 05:09:14;;;;;;;11.60;7.62;;;;;;;20.17;69.51;100865.29;1688263;83;21112;-57
2021/08/21 05:11:48;;;;;;;9.58;6.95;;;;;;;20.24;69.41;100873.88;1688884;83;21166;-57
2021/08/21 05:14:15;;;;;;;12.10;7.17;;;;;;;20.30;69.17;100864.36;1690393;82;21172;-58
2021/08/21 05:16:46;;;;;;;9.80;7.55;;;;;;;20.40;68.55;100868.63;1693910;83;21092;-58
2021/08/21 05:19:37;;;;;;;16.25;8.30;;;;;;;20.44;68.59;100865.56;1683978;83;22547;-59
2021/08/21 05:22:20;;;;;;;9.90;6.72;;;;;;;20.56;68.75;100873.30;1698019;83;21156;-59
2021/08/21 05:33:14;;;;;;;16.00;7.33;;;;;;;21.25;66.28;100887.22;1688818;83;21707;-58
2021/08/21 05:35:41;;;;;;;10.80;7.90;;;;;;;21.42;65.61;100885.41;1689527;83;21710;-58
2021/08/21 05:40:55;;;;;;;17.57;7.95;;;;;;;21.75;64.65;100889.69;1683683;82;21183;-58
2021/08/21 05:43:22;;;;;;;14.87;8.63;;;;;;;21.94;64.22;100888.20;1691053;83;21740;-58
2021/08/21 05:45:50;;;;;;;16.62;7.65;;;;;;;22.15;63.78;100880.10;1692061;83;21562;-58
2021/08/21 05:58:41;;;;;;;17.67;7.00;;;;;;;23.04;61.11;100900.97;1684315;83;21632;-58
2021/08/21 06:01:08;;;;;;;17.07;7.33;;;;;;;23.26;60.45;100901.89;1686532;83;21135;-59
2021/08/21 06:06:11;;;;;;;20.75;7.85;;;;;;;23.62;58.29;100907.88;1664190;83;21084;-59
2021/08/21 06:11:07;;;;;;;17.00;7.03;;;;;;;23.92;57.41;100906.15;1675486;83;21466;-59
2021/08/21 06:13:37;;;;;;;18.17;7.17;;;;;;;24.00;56.83;100904.97;1643466;84;21096;-58
2021/08/21 06:16:04;;;;;;;23.73;8.83;;;;;;;24.11;56.94;100902.67;1647470;84;21073;-58
2021/08/21 06:18:33;;;;;;;10.50;6.33;;;;;;;24.27;56.16;100906.24;1613638;86;21074;-58
2021/08/21 06:21:01;;;;;;;19.92;7.90;;;;;;;24.31;56.01;100906.32;1671199;83;21128;-59
2021/08/21 06:33:09;;;;;;;14.38;5.72;;;;;;;25.24;53.67;100919.34;1679765;83;21036;-58
2021/08/21 06:35:36;;;;;;;15.43;6.35;;;;;;;25.30;52.41;100916.00;1682840;83;21913;-63
2021/08/21 06:45:57;;;;;;;9.93;5.75;;;;;;;25.55;50.39;100919.19;1649750;84;21184;-61
2021/08/21 06:48:23;;;;;;;14.05;6.30;;;;;;;25.55;51.07;100917.81;1663576;82;21112;-62
2021/08/21 06:50:50;;;;;;;13.20;5.70;;;;;;;25.65;51.01;100924.14;1677566;83;21123;-62
2021/08/21 06:53:18;;;;;;;15.48;6.25;;;;;;;25.77;50.72;100921.23;1672884;83;21111;-62
2021/08/21 06:55:45;;;;;;;13.13;6.70;;;;;;;25.89;50.32;100925.02;1675931;83;21119;-62
2021/08/21 06:58:12;;;;;;;7.20;5.25;;;;;;;26.05;49.43;100924.00;1657847;83;21101;-62
2021/08/21 07:00:39;;;;;;;10.65;5.75;;;;;;;26.12;48.62;100924.63;1685189;83;21015;-61
2021/08/21 07:03:06;;;;;;;12.63;5.83;;;;;;;26.17;48.55;100925.55;1681431;83;21159;-61
2021/08/21 07:08:02;;;;;;;10.32;5.53;;;;;;;26.38;47.95;100931.30;1824848;77;22892;-63
2021/08/21 07:10:29;;;;;;;14.40;5.55;;;;;;;26.42;47.74;100931.38;1797767;79;20972;-63
2021/08/21 07:13:08;;;;;;;22.35;6.25;;;;;;;26.49;46.98;100929.73;1800709;79;22389;-63
2021/08/21 07:15:36;;;;;;;24.30;7.00;;;;;;;26.49;46.35;100932.48;1795841;78;20944;-62
2021/08/21 07:18:04;;;;;;;31.97;6.70;;;;;;;26.44;46.42;100934.84;1799262;79;21004;-63
2021/08/21 07:20:32;;;;;;;25.45;6.03;;;;;;;26.45;46.50;100935.19;1799474;78;21023;-63
2021/08/21 07:22:59;;;;;;;19.80;5.40;;;;;;;26.48;46.34;100939.00;1797813;79;21923;-63
2021/08/21 07:25:38;;;;;;;25.37;5.97;;;;;;;26.48;46.38;100936.75;1795340;79;21364;-63
2021/08/21 07:28:06;;;;;;;31.07;6.55;;;;;;;26.54;46.62;100938.37;1798264;79;21271;-62
2021/08/21 07:30:42;;;;;;;19.45;5.50;;;;;;;26.63;46.39;100939.83;1795737;78;21102;-62
2021/08/21 07:33:08;;;;;;;30.82;6.05;;;;;;;26.66;45.93;100940.92;1793910;77;21471;-63
2021/08/21 07:35:51;;;;;;;26.15;5.90;;;;;;;26.67;46.16;100937.16;1788671;78;21091;-62
2021/08/21 07:38:17;;;;;;;21.77;5.60;;;;;;;26.71;45.76;100947.66;1797152;78;21582;-62
2021/08/21 07:40:44;;;;;;;15.03;5.42;;;;;;;26.75;45.42;100939.98;1798292;78;21537;-63
2021/08/21 07:43:11;;;;;;;29.92;6.08;;;;;;;26.76;45.34;100947.20;1794618;79;21081;-62
2021/08/21 07:45:42;;;;;;;19.35;5.33;;;;;;;26.75;45.31;100942.72;1800483;78;21143;-62
2021/08/21 07:48:09;;;;;;;7.05;4.40;;;;;;;26.74;44.79;100933.59;1796773;79;21055;-62
2021/08/21 07:50:36;;;;;;;6.37;4.83;;;;;;;26.67;43.59;100944.88;1795157;78;21137;-61
2021/08/21 07:53:05;;;;;;;8.48;4.40;;;;;;;26.60;43.82;100935.00;1793752;79;21130;-61
2021/08/21 07:55:32;;;;;;;21.15;5.33;;;;;;;26.58;44.01;100943.06;1797142;78;21377;-61
2021/08/21 07:58:11;;;;;;;44.15;6.10;;;;;;;26.65;44.07;100940.56;1795101;78;21465;-62
2021/08/21 08:00:39;;;;;;;29.67;6.10;;;;;;;26.74;44.05;100945.13;1794540;78;21588;-62
2021/08/21 08:03:11;;;;;;;24.47;5.65;;;;;;;26.77;44.08;100942.06;1799681;78;21490;-62
2021/08/21 08:05:37;;;;;;;27.58;5.40;;;;;;;26.82;44.29;100949.33;1795874;79;21593;-60
2021/08/21 08:08:04;;;;;;;15.53;5.42;;;;;;;26.88;43.67;100949.25;1802698;78;21043;-62
2021/08/21 08:10:45;;;;;;;5.70;4.33;;;;;;;26.86;44.02;100942.55;1807922;78;20987;-62
2021/08/21 08:13:21;;;;;;;7.40;4.60;;;;;;;26.89;43.65;100939.98;1806883;79;21077;-63
2021/08/21 08:15:50;;;;;;;8.73;4.05;;;;;;;26.86;43.39;100939.80;1805176;78;21460;-61
2021/08/21 08:18:17;;;;;;;13.13;4.53;;;;;;;26.87;42.90;100954.39;1774979;79;20905;-62
2021/08/21 08:20:44;;;;;;;12.00;4.92;;;;;;;26.88;42.69;100948.75;1805036;77;21083;-62
2021/08/21 08:23:11;;;;;;;5.08;4.12;;;;;;;26.90;42.54;100950.48;1809217;78;20932;-62
2021/08/21 08:25:39;;;;;;;5.95;4.42;;;;;;;26.98;42.23;100939.55;1803664;78;20971;-63
2021/08/21 08:28:06;;;;;;;6.58;4.50;;;;;;;27.09;41.54;100948.95;1807661;78;21186;-63
2021/08/21 08:38:15;;;;;;;7.47;4.45;;;;;;;27.23;41.52;100948.02;1802820;78;21730;-63
2021/08/21 08:45:46;;;;;;;8.00;4.10;;;;;;;27.23;40.29;100943.89;1805973;78;21083;-62
2021/08/21 08:48:15;;;;;;;7.03;3.92;;;;;;;27.30;40.27;100942.22;1770026;78;20921;-61
2021/08/21 08:50:43;;;;;;;10.38;4.28;;;;;;;27.36;40.02;100951.24;1798944;78;21540;-62
2021/08/21 08:53:10;;;;;;;7.95;3.83;;;;;;;27.32;40.31;100955.34;1802808;78;21091;-62
2021/08/21 08:55:54;;;;;;;25.55;5.08;;;;;;;27.34;39.33;100955.16;1795773;78;21051;-62
2021/08/21 09:01:15;;;;;;;15.75;4.50;;;;;;;27.31;39.31;100953.62;1798271;78;21097;-61
2021/08/21 09:04:16;;;;;;;11.05;4.20;;;;;;;27.28;39.76;100944.27;1795292;78;21060;-59
2021/08/21 09:11:53;;;;;;;21.27;4.47;;;;;;;27.37;39.41;100963.98;1787129;79;21099;-61
2021/08/21 09:14:29;;;;;;;10.03;4.22;;;;;;;27.38;39.21;100961.58;1785065;79;21067;-58
2021/08/21 09:17:31;;;;;;;9.15;4.08;;;;;;;27.38;39.49;100960.20;1732486;82;22461;-62
2021/08/21 09:25:34;;;;;;;16.50;4.05;;;;;;;27.43;39.26;100952.32;1735996;82;21544;-61
2021/08/21 09:33:07;;;;;;;29.12;4.55;;;;;;;27.59;39.26;100956.27;1759721;80;21672;-62
2021/08/21 09:35:34;;;;;;;15.43;4.33;;;;;;;27.62;39.02;100952.30;1754259;80;21130;-62
2021/08/21 09:38:02;;;;;;;15.48;4.22;;;;;;;27.66;38.43;100953.20;1764343;80;21063;-62
2021/08/21 09:56:13;;;;;;;8.55;4.35;;;;;;;27.77;37.97;100954.83;1804010;78;21064;-62
2021/08/21 10:01:17;;;;;;;17.92;4.17;;;;;;;27.60;37.98;100957.99;1802316;79;20994;-62
2021/08/21 10:03:44;;;;;;;8.75;3.90;;;;;;;27.53;38.47;100951.41;1808297;79;20960;-63
2021/08/21 10:06:11;;;;;;;11.85;3.80;;;;;;;27.56;37.99;100954.69;1804511;79;21042;-62
2021/08/21 10:08:59;;;;;;;7.80;3.67;;;;;;;27.61;38.36;100954.21;1807084;78;21544;-61
2021/08/21 10:14:19;;;;;;;6.28;4.10;;;;;;;28.01;38.26;100958.75;1811990;78;21075;-61
2021/08/21 10:16:47;;;;;;;6.22;3.70;;;;;;;27.98;37.65;100959.97;1809198;78;21151;-61
2021/08/21 10:24:14;;;;;;;14.15;4.75;;;;;;;27.76;37.44;100952.25;1805396;78;21315;-60
2021/08/21 10:26:42;;;;;;;10.35;4.17;;;;;;;27.92;37.62;100948.20;1741437;80;21087;-61
2021/08/21 10:29:11;;;;;;;10.60;3.90;;;;;;;28.13;37.29;100957.95;1805146;77;21024;-62
2021/08/21 10:31:44;;;;;;;12.65;5.10;;;;;;;28.22;37.55;100962.53;1811487;78;20984;-62
2021/08/21 10:39:19;;;;;;;9.33;4.28;;;;;;;28.03;38.87;100950.69;1809971;78;21525;-60
2021/08/21 10:41:47;;;;;;;9.28;4.35;;;;;;;28.06;38.14;100956.89;1804552;78;21106;-61
2021/08/21 10:47:47;;;;;;;10.48;3.95;;;;;;;27.87;38.49;100947.83;1803454;78;21055;-61
2021/08/21 10:53:23;;;;;;;6.67;3.95;;;;;;;27.89;38.02;100951.28;1814409;78;21058;-61
2021/08/21 10:55:52;;;;;;;9.33;4.30;;;;;;;27.94;38.36;100955.78;1809458;78;21532;-62
2021/08/21 10:58:26;;;;;;;16.20;4.05;;;;;;;28.02;37.70;100968.25;1807576;78;20984;-60
2021/08/21 11:01:06;;;;;;;12.58;3.80;;;;;;;27.99;37.73;100954.80;1802819;78;26063;-62
2021/08/21 11:03:44;;;;;;;13.55;3.80;;;;;;;27.97;37.68;100948.59;1820029;78;21019;-59
2021/08/21 11:06:14;;;;;;;10.82;3.85;;;;;;;28.06;37.33;100948.09;1811904;78;21079;-58
2021/08/21 11:09:01;;;;;;;8.88;3.50;;;;;;;28.13;37.41;100950.56;1812886;78;21434;-57
2021/08/21 11:11:48;;;;;;;6.00;3.77;;;;;;;28.24;36.97;100945.30;1805635;78;21028;-58
2021/08/21 11:14:39;;;;;;;9.28;3.67;;;;;;;28.37;36.92;100950.35;1805661;78;21108;-57
2021/08/21 11:17:11;;;;;;;13.10;4.17;;;;;;;28.49;37.00;100945.89;1783849;78;21651;-58
2021/08/21 11:19:42;;;;;;;12.90;3.95;;;;;;;28.65;37.15;100939.59;1793712;77;21043;-58
2021/08/21 11:22:25;;;;;;;9.68;3.58;;;;;;;28.74;36.13;100935.80;1737824;82;21365;-58
2021/08/21 11:25:00;;;;;;;5.83;3.45;;;;;;;28.65;35.98;100935.45;1748660;80;21060;-58
2021/08/21 11:27:34;;;;;;;7.25;3.95;;;;;;;28.54;36.26;100936.09;1812575;77;21020;-58
2021/08/21 11:30:11;;;;;;;4.97;3.65;;;;;;;28.42;36.48;100952.62;1808309;78;21124;-57
2021/08/21 11:33:15;;;;;;;8.70;3.62;;;;;;;28.33;36.39;100939.81;1809910;78;21035;-58
2021/08/21 11:36:10;;;;;;;4.95;4.05;;;;;;;28.28;36.75;100942.56;1768592;78;21063;-57
2021/08/21 11:38:58;;;;;;;9.18;3.95;;;;;;;28.30;36.94;100936.89;1802904;79;25654;-57
2021/08/21 11:41:26;;;;;;;14.55;3.83;;;;;;;28.41;36.30;100944.00;1734781;79;21516;-59
2021/08/21 11:44:06;;;;;;;8.15;2.95;;;;;;;28.42;36.19;100935.55;1802535;78;21803;-59
2021/08/21 11:46:33;;;;;;;17.82;4.20;;;;;;;28.44;35.78;100934.02;1808597;78;21027;-57
2021/08/21 11:49:07;;;;;;;12.82;3.47;;;;;;;28.49;35.69;100932.11;1797339;79;21508;-59
2021/08/21 11:51:52;;;;;;;13.62;3.58;;;;;;;28.53;35.66;100930.23;1803184;78;21076;-60
2021/08/21 11:54:22;;;;;;;7.90;3.65;;;;;;;28.58;35.77;100931.12;1807422;79;21127;-58
2021/08/21 11:57:00;;;;;;;7.70;3.60;;;;;;;28.69;35.67;100928.03;1803099;77;21807;-58
2021/08/21 12:07:50;;;;;;;7.60;3.67;;;;;;;28.90;35.43;100904.64;1785543;78;21063;-59
2021/08/21 12:23:25;;;;;;;4.95;3.92;;;;;;;28.52;35.35;100929.89;1780655;79;21138;-59
2021/08/21 12:25:54;;;;;;;5.72;3.65;;;;;;;28.48;35.55;100934.02;1780161;78;21480;-59
2021/08/21 12:28:30;;;;;;;10.70;4.03;;;;;;;28.43;35.30;100934.52;1792252;78;21075;-58
2021/08/21 12:31:06;;;;;;;6.58;4.15;;;;;;;28.38;35.70;100931.40;1789748;78;22075;-59
2021/08/21 12:33:43;;;;;;;4.97;3.47;;;;;;;28.43;35.79;100931.75;1779050;78;21092;-57
2021/08/21 12:39:08;;;;;;;7.12;3.85;;;;;;;28.56;35.97;100935.94;1776044;78;21087;-59
2021/08/21 12:42:07;;;;;;;5.78;3.58;;;;;;;28.60;35.42;100927.67;1783283;78;21008;-58
2021/08/21 12:44:38;;;;;;;6.35;3.83;;;;;;;28.65;35.40;100918.91;1791894;79;21096;-58
2021/08/21 12:47:21;;;;;;;8.03;3.50;;;;;;;28.77;35.18;100925.80;1780911;78;21103;-58
2021/08/21 12:49:53;;;;;;;4.87;3.65;;;;;;;28.83;35.25;100925.69;1781576;78;21962;-58
2021/08/21 12:52:30;;;;;;;6.60;3.72;;;;;;;28.84;35.17;100929.63;1780855;78;21103;-59
2021/08/21 12:57:36;;;;;;;11.25;4.33;;;;;;;28.86;35.17;100941.39;1771189;78;21550;-57
2021/08/21 13:00:33;;;;;;;12.65;4.00;;;;;;;28.79;35.56;100928.41;1746255;80;21012;-57
2021/08/21 13:03:15;;;;;;;6.55;3.83;;;;;;;28.69;36.61;100930.78;1783093;78;21481;-57
2021/08/21 13:06:00;;;;;;;9.38;3.90;;;;;;;28.59;36.47;100928.70;1763881;80;21110;-60
2021/08/21 13:13:47;;;;;;;17.32;4.30;;;;;;;28.28;36.91;100941.68;1795585;79;21282;-58
2021/08/21 13:18:48;;;;;;;20.50;5.27;;;;;;;28.10;37.21;100930.73;1796428;79;20937;-58
2021/08/21 13:23:53;;;;;;;9.78;4.72;;;;;;;28.12;37.20;100935.06;1775967;78;22166;-58
2021/08/21 13:26:20;;;;;;;8.35;3.77;;;;;;;28.17;36.92;100930.44;1787627;78;21497;-58
2021/08/21 13:29:13;;;;;;;9.45;4.62;;;;;;;28.17;36.63;100940.08;1793211;79;21120;-58
2021/08/21 13:31:40;;;;;;;11.73;4.40;;;;;;;28.13;36.71;100934.53;1751452;79;21122;-59
2021/08/21 13:34:09;;;;;;;8.78;3.92;;;;;;;28.12;36.68;100932.80;1776303;79;21578;-58
2021/08/21 13:36:39;;;;;;;8.88;4.10;;;;;;;28.11;36.83;100932.45;1794173;79;20960;-58
2021/08/21 13:39:08;;;;;;;6.42;4.10;;;;;;;28.02;36.86;100941.19;1796516;79;21734;-59
2021/08/21 13:41:35;;;;;;;8.88;4.40;;;;;;;27.93;36.77;100941.66;1794113;79;21841;-58
2021/08/21 13:44:03;;;;;;;9.45;3.85;;;;;;;27.85;36.77;100942.50;1794857;78;21537;-58
2021/08/21 13:46:39;;;;;;;13.30;4.60;;;;;;;27.81;37.13;100932.81;1792566;79;21060;-59
2021/08/21 13:49:06;;;;;;;10.28;4.08;;;;;;;27.80;37.03;100933.84;1801688;78;21009;-59
2021/08/21 13:59:23;;;;;;;6.33;3.70;;;;;;;27.79;36.93;100945.04;1760774;80;21637;-58
2021/08/21 14:01:51;;;;;;;6.08;3.98;;;;;;;27.68;37.01;100938.76;1768955;80;20989;-59
2021/08/21 14:04:21;;;;;;;10.13;4.22;;;;;;;27.60;37.35;100931.83;1721618;82;21064;-59
2021/08/21 14:06:48;;;;;;;11.15;3.83;;;;;;;27.60;37.44;100935.97;1731090;81;21573;-61
2021/08/21 14:09:16;;;;;;;7.95;4.30;;;;;;;27.57;37.26;100936.29;1726047;81;21110;-58
2021/08/21 14:11:43;;;;;;;9.63;3.90;;;;;;;27.51;37.69;100941.92;1754653;80;21546;-58
2021/08/21 14:14:10;;;;;;;7.53;3.95;;;;;;;27.44;38.08;100938.91;1757702;81;21460;-59
2021/08/21 14:16:40;;;;;;;9.65;4.20;;;;;;;27.40;38.17;100936.13;1750330;81;21122;-60
2021/08/21 14:19:06;;;;;;;13.90;4.53;;;;;;;27.39;38.53;100927.52;1740394;81;21157;-58
2021/08/21 14:21:35;;;;;;;11.73;4.47;;;;;;;27.44;38.67;100940.28;1755668;81;21129;-59
2021/08/21 14:24:04;;;;;;;15.55;4.20;;;;;;;27.43;38.43;100931.67;1757046;81;21014;-58
2021/08/21 14:26:31;;;;;;;7.53;3.72;;;;;;;27.41;38.48;100934.22;1734494;82;21635;-59
2021/08/21 14:28:58;;;;;;;14.90;4.17;;;;;;;27.39;38.08;100933.02;1757907;81;21102;-59
2021/08/21 14:31:27;;;;;;;10.30;4.60;;;;;;;27.36;38.15;100930.59;1757816;81;21576;-60
2021/08/21 14:34:02;;;;;;;8.98;4.15;;;;;;;27.35;37.76;100933.50;1740328;82;21128;-59
2021/08/21 14:36:29;;;;;;;4.95;3.77;;;;;;;27.33;37.71;100928.67;1746391;82;21046;-58
2021/08/21 14:38:56;;;;;;;16.42;4.85;;;;;;;27.34;37.58;100927.14;1758446;80;21528;-59
2021/08/21 14:41:23;;;;;;;12.05;4.17;;;;;;;27.38;37.80;100931.30;1736491;82;21143;-58
2021/08/21 14:43:51;;;;;;;7.60;3.90;;;;;;;27.37;37.45;100925.44;1751836;80;21864;-58
2021/08/21 14:49:10;;;;;;;12.00;5.53;;;;;;;27.31;37.11;100931.06;1762439;81;21075;-59
2021/08/21 14:59:24;;;;;;;9.13;4.97;;;;;;;27.11;38.07;100928.14;1727835;82;21058;-59
2021/08/21 15:01:57;;;;;;;10.68;5.30;;;;;;;27.13;38.28;100922.84;1757594;80;20999;-59
2021/08/21 15:04:25;;;;;;;10.82;4.78;;;;;;;27.20;38.17;100930.45;1756080;80;21019;-59
2021/08/21 15:09:54;;;;;;;9.78;5.67;;;;;;;27.27;38.17;100929.66;1759418;80;21567;-59
2021/08/21 15:12:21;;;;;;;13.20;5.60;;;;;;;27.33;37.71;100920.41;1762149;81;20977;-59
2021/08/21 15:14:48;;;;;;;7.78;5.20;;;;;;;27.39;37.63;100925.27;1759012;80;21301;-59
2021/08/21 15:17:14;;;;;;;8.88;4.87;;;;;;;27.43;37.26;100927.55;1760199;81;21020;-58
2021/08/21 15:19:42;;;;;;;7.55;4.75;;;;;;;27.46;37.15;100924.47;1762900;81;21617;-59
2021/08/21 15:22:11;;;;;;;11.00;4.75;;;;;;;27.48;37.12;100931.20;1761024;80;22378;-58
2021/08/21 15:27:13;;;;;;;9.25;4.50;;;;;;;27.40;37.09;100934.75;1754019;80;21475;-59
2021/08/21 15:29:41;;;;;;;9.20;4.62;;;;;;;27.30;37.29;100921.08;1757562;81;21095;-59
2021/08/21 15:32:11;;;;;;;7.70;4.50;;;;;;;27.23;37.37;100932.39;1755782;80;21075;-59
2021/08/21 15:34:41;;;;;;;16.45;4.53;;;;;;;27.19;37.51;100924.59;1761039;80;21704;-59
2021/08/21 15:37:08;;;;;;;14.23;4.83;;;;;;;27.15;37.47;100929.05;1727092;81;21080;-61
2021/08/21 15:39:36;;;;;;;9.55;4.55;;;;;;;27.12;37.58;100934.00;1752464;80;21020;-61
2021/08/21 15:47:21;;;;;;;6.62;5.03;;;;;;;27.05;38.21;100928.78;1786242;79;21948;-62
2021/08/21 15:50:07;;;;;;;8.48;5.72;;;;;;;26.99;38.61;100930.27;1778570;79;21123;-61
2021/08/21 15:52:34;;;;;;;11.28;5.62;;;;;;;26.97;38.82;100929.07;1787431;79;21102;-61
2021/08/21 15:55:35;;;;;;;15.88;5.53;;;;;;;26.88;39.04;100933.62;1781735;79;21529;-61
2021/08/21 15:58:03;;;;;;;9.48;5.78;;;;;;;26.83;39.28;100924.92;1800036;79;21092;-61
2021/08/21 16:00:30;;;;;;;11.73;5.20;;;;;;;26.80;39.35;100933.48;1772996;79;21562;-61
2021/08/21 16:08:31;;;;;;;25.62;12.55;;;;;;;26.72;39.64;100938.92;1802262;79;21047;-61
2021/08/21 16:10:57;;;;;;;46.02;17.42;;;;;;;26.66;39.63;100942.30;1799693;79;20972;-62
2021/08/21 16:15:59;;;;;;;47.17;20.35;;;;;;;26.59;39.86;100934.64;1805001;78;21095;-61
2021/08/21 16:20:55;;;;;;;29.98;12.95;;;;;;;26.62;39.98;100943.59;1814297;79;21095;-62
2021/08/21 16:28:35;;;;;;;19.12;8.70;;;;;;;26.67;40.03;100953.65;1814333;79;21064;-61